Time;durP1;ratioP1;P1;durP2;ratioP2;P2;SDS_P1;SDS_P2;PMS_P1;PMS_P2;Temp;Humidity;BMP_temperature;BMP_pressure;BME280_temperature;BME280_humidity;BME280_pressure;Samples;Min_cycle;Max_cycle;Signal;HPM_P1;HPM_P2
2023/04/06 00:01:48;;;;;;;11.85;6.85;;;;;;;-0.39;49.26;95659.31;5032759;28;20123;-74
2023/04/06 00:04:14;;;;;;;11.23;6.80;;;;;;;-0.36;48.93;95653.84;4983238;28;1106469;-74
2023/04/06 00:06:40;;;;;;;11.55;6.68;;;;;;;-0.37;49.32;95654.81;5020028;28;20156;-74
2023/04/06 00:09:05;;;;;;;10.82;6.70;;;;;;;-0.38;48.96;95653.97;5023076;28;20096;-74
2023/04/06 00:11:30;;;;;;;12.82;6.90;;;;;;;-0.37;50.29;95650.41;5021932;28;20143;-74
2023/04/06 00:13:56;;;;;;;11.13;6.72;;;;;;;-0.47;49.07;95641.53;5022767;28;20087;-74
2023/04/06 00:16:21;;;;;;;9.50;5.70;;;;;;;-0.37;47.31;95649.56;5023105;28;20100;-74
2023/04/06 00:18:47;;;;;;;8.02;5.70;;;;;;;-0.40;49.03;95645.41;5023267;28;20335;-74
2023/04/06 00:21:15;;;;;;;11.95;6.07;;;;;;;-0.33;49.00;95641.38;5021077;28;20087;-74
2023/04/06 00:23:41;;;;;;;10.30;6.68;;;;;;;-0.31;48.51;95639.50;5021587;28;20059;-75
2023/04/06 00:26:06;;;;;;;10.45;6.72;;;;;;;-0.33;47.91;95641.38;5021300;28;20096;-74
2023/04/06 00:28:32;;;;;;;9.98;6.35;;;;;;;-0.34;48.90;95637.09;5022729;28;20074;-74
2023/04/06 00:30:57;;;;;;;13.43;6.32;;;;;;;-0.28;48.24;95632.38;5004575;28;20088;-74
2023/04/06 00:33:22;;;;;;;9.73;6.10;;;;;;;-0.25;48.44;95622.53;5022172;28;20087;-74
2023/04/06 00:35:48;;;;;;;12.63;6.47;;;;;;;-0.30;48.94;95627.28;5037426;28;20087;-74
2023/04/06 00:38:14;;;;;;;7.88;5.20;;;;;;;-0.35;48.57;95622.34;5004747;28;20632;-74
2023/04/06 00:40:39;;;;;;;10.40;5.85;;;;;;;-0.31;48.86;95623.81;5022623;28;20075;-74
2023/04/06 00:43:10;;;;;;;8.80;5.72;;;;;;;-0.33;46.73;95624.88;5021049;28;20096;-74
2023/04/06 00:45:36;;;;;;;9.40;6.00;;;;;;;-0.38;49.60;95621.72;5020346;28;20096;-74
2023/04/06 00:48:01;;;;;;;8.38;5.13;;;;;;;-0.38;47.63;95619.09;5004760;28;20100;-74
2023/04/06 00:50:27;;;;;;;8.80;5.78;;;;;;;-0.36;48.97;95617.22;5004083;28;20094;-74
2023/04/06 00:52:53;;;;;;;10.63;5.50;;;;;;;-0.31;47.64;95609.88;5022147;28;20066;-74
2023/04/06 00:55:18;;;;;;;10.50;5.70;;;;;;;-0.31;48.43;95608.09;5022203;28;20085;-74
2023/04/06 00:57:44;;;;;;;8.82;5.28;;;;;;;-0.30;47.43;95611.56;5020418;28;20181;-74
2023/04/06 01:00:12;;;;;;;10.57;5.63;;;;;;;-0.27;47.63;95603.47;5021117;28;20068;-74
2023/04/06 01:02:46;;;;;;;8.05;5.07;;;;;;;-0.24;46.01;95602.44;5019867;28;20121;-74
2023/04/06 01:05:11;;;;;;;8.45;5.15;;;;;;;-0.26;47.91;95599.94;5021597;28;20097;-73
2023/04/06 01:07:40;;;;;;;8.48;5.40;;;;;;;-0.22;48.59;95601.38;5019263;28;20056;-73
2023/04/06 01:10:05;;;;;;;8.13;5.43;;;;;;;-0.20;49.18;95596.84;5022505;28;20753;-73
2023/04/06 01:12:31;;;;;;;7.80;5.43;;;;;;;-0.21;48.51;95591.72;5022729;28;20150;-73
2023/04/06 01:14:56;;;;;;;8.65;5.25;;;;;;;-0.17;47.28;95590.56;5022237;28;20100;-74
2023/04/06 01:17:22;;;;;;;9.05;5.43;;;;;;;-0.14;46.50;95587.72;5020567;28;20139;-73
2023/04/06 01:19:49;;;;;;;8.48;5.40;;;;;;;-0.15;45.54;95580.81;5021112;28;20114;-73
2023/04/06 01:22:18;;;;;;;7.10;4.70;;;;;;;-0.21;46.07;95579.50;5037515;28;20566;-73
2023/04/06 01:24:43;;;;;;;9.02;5.00;;;;;;;-0.23;46.33;95583.16;5020310;28;20145;-74
2023/04/06 01:27:09;;;;;;;8.63;5.20;;;;;;;-0.21;46.84;95582.09;4995541;28;20072;-74
2023/04/06 01:29:35;;;;;;;7.60;4.90;;;;;;;-0.24;45.02;95581.50;5020241;28;20105;-73
2023/04/06 01:32:00;;;;;;;9.93;5.45;;;;;;;-0.24;45.11;95569.25;4994156;28;20068;-73
2023/04/06 01:34:25;;;;;;;8.82;5.05;;;;;;;-0.27;47.34;95566.84;5020481;28;20099;-73
2023/04/06 01:36:51;;;;;;;6.95;4.68;;;;;;;-0.33;44.72;95567.31;5004395;28;20056;-71
2023/04/06 01:39:16;;;;;;;8.55;5.25;;;;;;;-0.36;45.24;95575.38;5021637;28;20132;-71
2023/04/06 01:41:42;;;;;;;7.88;4.78;;;;;;;-0.36;47.50;95559.66;5022171;28;20634;-71
2023/04/06 01:44:07;;;;;;;8.60;4.70;;;;;;;-0.37;44.79;95565.84;5021443;28;20077;-71
2023/04/06 01:46:33;;;;;;;6.82;4.72;;;;;;;-0.44;39.39;95555.81;5022023;28;20096;-71
2023/04/06 01:49:01;;;;;;;7.63;4.97;;;;;;;-0.44;47.32;95554.97;5020822;28;20100;-71
2023/04/06 01:51:27;;;;;;;8.30;4.93;;;;;;;-0.45;47.45;95563.78;5019954;28;20052;-71
2023/04/06 01:53:52;;;;;;;7.30;4.90;;;;;;;-0.45;48.04;95554.16;5015688;28;20454;-71
2023/04/06 01:56:18;;;;;;;8.40;4.90;;;;;;;-0.47;42.56;95558.66;5019862;28;20133;-71
2023/04/06 01:58:43;;;;;;;9.27;5.20;;;;;;;-0.49;48.44;95555.31;5019945;28;20095;-72
2023/04/06 02:01:09;;;;;;;7.18;4.93;;;;;;;-0.49;48.56;95551.88;5018851;28;20604;-71
2023/04/06 02:03:34;;;;;;;7.35;4.80;;;;;;;-0.49;47.94;95547.47;5021258;28;20111;-71
2023/04/06 02:06:00;;;;;;;7.63;5.15;;;;;;;-0.53;47.87;95551.25;5018752;28;20086;-71
2023/04/06 02:08:25;;;;;;;7.97;4.97;;;;;;;-0.56;49.06;95554.09;5020414;28;20073;-71
2023/04/06 02:10:50;;;;;;;8.30;4.88;;;;;;;-0.61;43.86;95553.59;5021423;28;20574;-71
2023/04/06 02:13:16;;;;;;;8.45;4.50;;;;;;;-0.97;36.53;95549.09;5020509;28;20150;-71
2023/04/06 02:15:41;;;;;;;6.75;4.50;;;;;;;-0.88;40.23;95546.75;5019972;28;20084;-71
2023/04/06 02:18:07;;;;;;;7.47;4.50;;;;;;;-0.89;47.49;95551.16;4987396;28;20096;-71
2023/04/06 02:20:32;;;;;;;7.45;4.50;;;;;;;-0.97;43.37;95553.44;5021918;28;20136;-71
2023/04/06 02:22:59;;;;;;;8.20;4.93;;;;;;;-1.01;38.33;95544.97;5020064;28;20867;-71
2023/04/06 02:25:27;;;;;;;7.40;4.90;;;;;;;-1.11;36.53;95543.94;5002611;28;20574;-71
2023/04/06 02:27:53;;;;;;;6.38;4.60;;;;;;;-1.23;38.00;95536.00;5020744;28;20263;-71
2023/04/06 02:30:19;;;;;;;7.05;4.57;;;;;;;-1.33;39.63;95540.19;5019588;28;20522;-71
2023/04/06 02:32:44;;;;;;;9.20;5.03;;;;;;;-1.82;37.12;95537.38;5003537;28;20050;-71
2023/04/06 02:35:10;;;;;;;7.30;4.72;;;;;;;-2.17;38.52;95543.16;5020996;28;20095;-71
2023/04/06 02:37:35;;;;;;;7.10;4.75;;;;;;;-2.06;38.01;95532.00;5019795;28;20467;-71
2023/04/06 02:40:01;;;;;;;7.93;4.32;;;;;;;-1.82;39.02;95534.75;5021631;28;20066;-71
2023/04/06 02:42:26;;;;;;;6.78;4.28;;;;;;;-1.74;45.19;95532.47;5020528;28;20094;-71
2023/04/06 02:44:51;;;;;;;10.98;4.93;;;;;;;-1.82;41.25;95534.75;5020328;28;20102;-71
2023/04/06 02:47:17;;;;;;;7.95;4.70;;;;;;;-1.90;37.78;95531.84;5020048;28;20057;-71
2023/04/06 02:49:42;;;;;;;8.02;4.75;;;;;;;-2.17;40.57;95528.31;5021004;28;20097;-71
2023/04/06 02:52:07;;;;;;;9.30;4.85;;;;;;;-2.04;38.45;95538.78;5020002;28;20066;-71
2023/04/06 02:54:33;;;;;;;8.90;4.28;;;;;;;-1.88;43.59;95537.78;5020811;28;20091;-71
2023/04/06 02:56:58;;;;;;;6.63;4.20;;;;;;;-1.78;40.68;95533.63;4986733;28;20316;-71
2023/04/06 02:59:24;;;;;;;7.07;4.57;;;;;;;-1.98;38.58;95524.50;4987187;28;20447;-71
2023/04/06 03:01:50;;;;;;;7.03;4.38;;;;;;;-1.69;46.94;95537.38;5019828;28;20107;-71
2023/04/06 03:04:15;;;;;;;7.97;3.92;;;;;;;-1.66;43.33;95531.94;5020521;28;20578;-71
2023/04/06 03:06:40;;;;;;;8.63;4.20;;;;;;;-1.51;46.76;95521.41;5019949;28;20103;-71
2023/04/06 03:09:08;;;;;;;7.18;4.15;;;;;;;-1.44;42.78;95527.88;5020259;28;20205;-71
2023/04/06 03:11:34;;;;;;;8.15;4.50;;;;;;;-1.37;45.05;95525.69;5020072;28;20064;-71
2023/04/06 03:13:59;;;;;;;7.13;4.47;;;;;;;-1.41;41.67;95530.28;5020445;28;20131;-71
2023/04/06 03:16:25;;;;;;;5.13;3.83;;;;;;;-1.34;47.01;95526.31;5020831;28;20091;-71
2023/04/06 03:18:50;;;;;;;7.22;4.25;;;;;;;-1.23;45.66;95532.56;5018691;28;20091;-71
2023/04/06 03:21:16;;;;;;;8.63;4.80;;;;;;;-1.22;42.51;95527.22;5020784;28;20101;-71
2023/04/06 03:23:42;;;;;;;6.68;4.18;;;;;;;-1.17;46.27;95537.38;5018717;28;20102;-71
2023/04/06 03:26:07;;;;;;;6.47;3.90;;;;;;;-1.11;39.84;95528.25;5019013;28;20488;-71
2023/04/06 03:28:33;;;;;;;5.32;4.00;;;;;;;-1.18;41.34;95524.41;5020628;28;20146;-71
2023/04/06 03:30:58;;;;;;;6.30;3.97;;;;;;;-1.21;42.98;95525.47;4977566;28;20102;-71
2023/04/06 03:33:26;;;;;;;7.53;4.20;;;;;;;-1.21;37.66;95526.28;5018738;28;20138;-71
2023/04/06 03:35:52;;;;;;;6.68;4.00;;;;;;;-1.12;44.30;95524.00;5003311;28;20933;-71
2023/04/06 03:38:17;;;;;;;6.05;3.80;;;;;;;-1.11;41.46;95526.47;5019400;28;20187;-70
2023/04/06 03:40:43;;;;;;;7.10;4.20;;;;;;;-1.00;45.79;95536.19;5019182;28;20120;-71
2023/04/06 03:43:09;;;;;;;7.15;4.10;;;;;;;-1.05;38.38;95527.81;5020244;28;20094;-71
2023/04/06 03:45:34;;;;;;;7.07;3.97;;;;;;;-1.05;41.46;95529.63;5018913;28;20100;-71
2023/04/06 03:48:00;;;;;;;7.25;4.63;;;;;;;-1.06;42.72;95527.97;5020421;28;20084;-71
2023/04/06 03:50:25;;;;;;;5.43;4.03;;;;;;;-1.05;44.10;95525.22;5020272;28;20670;-71
2023/04/06 03:52:51;;;;;;;6.82;4.40;;;;;;;-1.15;40.31;95526.81;5018920;28;20128;-71
2023/04/06 03:55:16;;;;;;;5.10;3.63;;;;;;;-1.12;46.46;95532.66;5020319;28;20086;-71
2023/04/06 03:57:42;;;;;;;5.15;3.63;;;;;;;-1.09;46.44;95536.81;5018389;28;20115;-71
2023/04/06 04:00:08;;;;;;;6.50;3.95;;;;;;;-1.11;47.07;95536.91;5017866;28;20089;-71
2023/04/06 04:02:33;;;;;;;6.07;4.40;;;;;;;-1.27;38.55;95537.16;5016249;28;20087;-71
2023/04/06 04:04:58;;;;;;;5.18;3.90;;;;;;;-1.27;44.00;95529.34;5017183;28;20107;-71
2023/04/06 04:07:24;;;;;;;5.97;4.00;;;;;;;-1.29;48.33;95535.63;5018998;28;20077;-71
2023/04/06 04:09:52;;;;;;;6.72;4.32;;;;;;;-1.44;39.23;95529.66;5018119;28;20097;-71
2023/04/06 04:12:18;;;;;;;8.80;4.53;;;;;;;-1.37;43.26;95536.97;5018309;28;20799;-71
2023/04/06 04:14:43;;;;;;;6.63;4.05;;;;;;;-1.32;43.17;95538.44;5017757;28;20090;-71
2023/04/06 04:17:09;;;;;;;5.45;3.67;;;;;;;-1.31;41.86;95543.56;5017899;28;20724;-71
2023/04/06 04:19:34;;;;;;;7.03;4.70;;;;;;;-1.47;39.26;95541.13;5002193;28;20510;-71
2023/04/06 04:22:00;;;;;;;6.32;4.35;;;;;;;-1.41;41.13;95534.66;5019689;28;20141;-71
2023/04/06 04:24:26;;;;;;;8.35;4.57;;;;;;;-1.47;40.11;95538.53;5019534;28;20084;-71
2023/04/06 04:26:51;;;;;;;7.75;4.22;;;;;;;-1.31;42.50;95543.56;5018460;28;20555;-71
2023/04/06 04:29:19;;;;;;;6.20;4.25;;;;;;;-1.31;42.63;95540.94;5017954;28;20096;-71
2023/04/06 04:31:45;;;;;;;6.90;4.57;;;;;;;-1.40;37.85;95534.56;5018814;28;20075;-71
2023/04/06 04:34:10;;;;;;;8.75;4.32;;;;;;;-1.54;37.41;95535.50;5001400;28;20082;-71
2023/04/06 04:36:36;;;;;;;10.18;4.35;;;;;;;-1.38;40.37;95539.69;5018798;28;20078;-71
2023/04/06 04:39:01;;;;;;;7.68;4.38;;;;;;;-1.29;41.70;95544.25;5018103;28;20094;-71
2023/04/06 04:41:27;;;;;;;7.82;4.55;;;;;;;-1.22;42.07;95542.09;5001906;28;20090;-71
2023/04/06 04:43:52;;;;;;;7.53;4.47;;;;;;;-1.18;42.05;95545.31;5018794;28;20070;-71
2023/04/06 04:46:17;;;;;;;6.30;3.92;;;;;;;-1.07;45.86;95545.41;5001543;28;20095;-71
2023/04/06 04:48:43;;;;;;;6.30;4.10;;;;;;;-0.98;46.89;95547.34;5019542;28;20065;-71
2023/04/06 04:51:08;;;;;;;12.13;5.18;;;;;;;-1.11;36.64;95539.53;5021577;28;20097;-71
2023/04/06 04:53:34;;;;;;;12.05;4.45;;;;;;;-1.14;40.91;95546.78;5005297;28;20096;-71
2023/04/06 04:55:59;;;;;;;9.27;4.68;;;;;;;-1.19;41.33;95552.31;5021604;28;20112;-71
2023/04/06 04:58:25;;;;;;;10.63;5.47;;;;;;;-1.46;34.93;95543.66;5005114;28;20139;-71
2023/04/06 05:00:50;;;;;;;9.43;5.30;;;;;;;-1.68;34.62;95549.50;5021023;28;20113;-71
2023/04/06 05:03:21;;;;;;;8.57;4.93;;;;;;;-1.67;35.60;95547.72;5022866;28;20096;-71
2023/04/06 05:05:47;;;;;;;9.27;4.35;;;;;;;-1.50;42.46;95550.03;5004639;28;20197;-71
2023/04/06 05:08:12;;;;;;;6.43;3.92;;;;;;;-1.32;45.95;95546.25;5022812;28;20067;-71
2023/04/06 05:10:38;;;;;;;8.30;5.53;;;;;;;-1.73;35.43;95543.75;5004627;28;20101;-71
2023/04/06 05:13:03;;;;;;;9.15;4.97;;;;;;;-1.59;42.89;95545.44;5022755;28;20147;-71
2023/04/06 05:15:29;;;;;;;6.63;4.30;;;;;;;-1.39;41.63;95544.06;5020675;28;20091;-70
2023/04/06 05:17:54;;;;;;;7.97;5.40;;;;;;;-1.49;38.10;95541.25;5022114;28;20975;-71
2023/04/06 05:20:20;;;;;;;9.63;4.57;;;;;;;-1.22;41.94;95545.50;5003104;28;20067;-71
2023/04/06 05:22:45;;;;;;;7.80;4.65;;;;;;;-1.15;38.52;95545.91;5020980;28;20091;-70
2023/04/06 05:25:10;;;;;;;8.15;5.30;;;;;;;-1.19;37.22;95543.66;5021093;28;20094;-71
2023/04/06 05:27:36;;;;;;;8.02;4.68;;;;;;;-1.02;36.35;95548.53;5020618;28;20145;-71
2023/04/06 05:30:02;;;;;;;8.02;4.75;;;;;;;-0.79;37.38;95551.34;4994759;28;20483;-70
2023/04/06 05:32:27;;;;;;;6.97;4.55;;;;;;;-0.56;42.42;95546.25;5020593;28;20728;-71
2023/04/06 05:34:53;;;;;;;9.75;4.78;;;;;;;-0.42;39.31;95542.63;5019648;28;20103;-71
2023/04/06 05:37:18;;;;;;;8.13;5.40;;;;;;;-0.35;35.64;95546.47;5020020;28;20152;-71
2023/04/06 05:39:44;;;;;;;7.05;4.25;;;;;;;-0.15;43.38;95546.81;5021288;28;20796;-71
2023/04/06 05:42:09;;;;;;;7.15;5.10;;;;;;;-0.21;37.25;95548.09;5018485;28;20598;-71
2023/04/06 05:44:36;;;;;;;5.80;4.40;;;;;;;0.02;42.22;95552.56;5004278;28;20067;-71
2023/04/06 05:47:02;;;;;;;7.63;4.78;;;;;;;0.04;36.61;95548.06;5002983;28;20309;-71
2023/04/06 05:49:27;;;;;;;8.50;5.28;;;;;;;-0.10;34.38;95547.28;5020010;28;20166;-71
2023/04/06 05:51:53;;;;;;;8.80;4.45;;;;;;;0.21;37.77;95549.44;5019985;28;20110;-71
2023/04/06 05:54:18;;;;;;;6.93;5.00;;;;;;;0.39;38.25;95549.00;4985226;28;20084;-71
2023/04/06 05:56:43;;;;;;;5.72;3.78;;;;;;;0.70;42.70;95550.13;5017892;28;20825;-71
2023/04/06 05:59:09;;;;;;;6.95;4.50;;;;;;;0.96;40.26;95549.06;5019512;28;20408;-71
2023/04/06 06:01:34;;;;;;;7.13;4.68;;;;;;;1.05;37.49;95556.19;5019475;28;20236;-71
2023/04/06 06:04:01;;;;;;;7.50;3.45;;;;;;;1.20;42.48;95548.09;5019449;28;20168;-71
2023/04/06 06:06:27;;;;;;;7.05;3.58;;;;;;;1.35;41.89;95549.50;5004608;28;20323;-71
2023/04/06 06:08:53;;;;;;;5.95;4.00;;;;;;;1.51;40.56;95553.53;4986764;28;20460;-71
2023/04/06 06:11:18;;;;;;;6.47;4.50;;;;;;;1.68;38.81;95548.72;5019820;28;20058;-71
2023/04/06 06:13:44;;;;;;;6.30;4.25;;;;;;;1.88;38.65;95539.25;5019521;28;20569;-71
2023/04/06 06:16:09;;;;;;;5.90;4.03;;;;;;;1.98;36.77;95541.97;5021084;28;20061;-71
2023/04/06 06:18:36;;;;;;;7.30;4.72;;;;;;;2.03;30.91;95538.94;5004837;28;20076;-72
2023/04/06 06:21:01;;;;;;;8.60;5.07;;;;;;;2.18;35.60;95540.28;5002984;28;20445;-71
2023/04/06 06:23:27;;;;;;;5.78;4.20;;;;;;;2.38;37.13;95535.16;5013452;28;20071;-71
2023/04/06 06:25:52;;;;;;;8.02;4.63;;;;;;;2.61;32.62;95541.13;5019196;28;20080;-71
2023/04/06 06:28:17;;;;;;;7.93;5.10;;;;;;;2.68;29.75;95536.19;5017531;28;20094;-72
2023/04/06 06:30:43;;;;;;;7.13;4.85;;;;;;;2.80;31.78;95536.94;5019271;28;20080;-72
2023/04/06 06:33:11;;;;;;;6.00;4.22;;;;;;;2.96;32.12;95533.00;4985343;28;20510;-71
2023/04/06 06:35:37;;;;;;;8.77;5.00;;;;;;;3.04;30.10;95536.63;4999970;28;20795;-71
2023/04/06 06:38:02;;;;;;;7.15;4.88;;;;;;;3.24;31.05;95535.88;5020100;28;20111;-71
2023/04/06 06:40:28;;;;;;;8.60;5.40;;;;;;;3.30;27.46;95541.41;5019634;28;20068;-71
2023/04/06 06:42:53;;;;;;;8.27;5.07;;;;;;;3.36;27.37;95544.47;5001365;28;20393;-71
2023/04/06 06:45:19;;;;;;;8.35;5.28;;;;;;;2.70;29.19;95538.69;5018253;28;20448;-72
2023/04/06 06:47:45;;;;;;;7.72;4.88;;;;;;;3.22;29.67;95550.94;5020063;28;20052;-71
2023/04/06 06:50:10;;;;;;;8.18;5.60;;;;;;;3.40;26.90;95545.88;5019974;28;20068;-72
2023/04/06 06:52:36;;;;;;;7.70;5.22;;;;;;;3.25;27.24;95541.00;5019287;28;20040;-71
2023/04/06 06:55:01;;;;;;;8.50;5.15;;;;;;;3.65;28.49;95547.22;5020191;28;20099;-71
2023/04/06 06:57:27;;;;;;;7.78;4.82;;;;;;;2.97;30.73;95550.44;5018373;28;20075;-71
2023/04/06 06:59:52;;;;;;;9.30;5.38;;;;;;;2.93;31.91;95549.03;5000452;28;20057;-71
2023/04/06 07:02:18;;;;;;;8.05;4.90;;;;;;;3.59;29.24;95545.13;5016863;28;20071;-71
2023/04/06 07:04:43;;;;;;;8.75;5.43;;;;;;;3.83;28.22;95550.97;5018588;28;20857;-71
2023/04/06 07:07:09;;;;;;;8.65;5.35;;;;;;;3.67;29.15;95554.97;5015052;28;20047;-71
2023/04/06 07:09:35;;;;;;;8.95;5.20;;;;;;;3.97;28.90;95547.09;5018634;28;20078;-71
2023/04/06 07:12:01;;;;;;;9.38;5.95;;;;;;;4.24;28.05;95549.03;5018593;28;20042;-71
2023/04/06 07:14:27;;;;;;;11.57;7.60;;;;;;;4.41;33.28;95544.88;5019608;28;20044;-71
2023/04/06 07:16:52;;;;;;;10.20;5.97;;;;;;;4.28;27.14;95544.31;5017379;28;20103;-72
2023/04/06 07:19:18;;;;;;;8.38;5.40;;;;;;;4.59;28.67;95541.50;5018068;28;20539;-72
2023/04/06 07:21:43;;;;;;;11.38;6.63;;;;;;;4.66;28.85;95542.59;4985507;28;20077;-71
2023/04/06 07:24:08;;;;;;;11.43;5.47;;;;;;;4.75;26.91;95540.06;5002416;28;20468;-71
2023/04/06 07:26:34;;;;;;;10.35;5.82;;;;;;;4.89;28.24;95542.25;5017846;28;20536;-72
2023/04/06 07:28:59;;;;;;;11.98;7.35;;;;;;;5.04;28.99;95539.97;5017054;28;20048;-72
2023/04/06 07:31:25;;;;;;;9.52;5.85;;;;;;;5.35;27.17;95538.91;5018806;28;20036;-72
2023/04/06 07:33:50;;;;;;;10.27;6.10;;;;;;;5.38;26.83;95538.63;5015449;28;20040;-72
2023/04/06 07:36:16;;;;;;;10.73;6.45;;;;;;;5.00;25.92;95535.97;5020186;28;20036;-72
2023/04/06 07:38:41;;;;;;;13.10;6.32;;;;;;;5.29;27.31;95547.41;5017961;28;20042;-72
2023/04/06 07:41:06;;;;;;;11.30;7.25;;;;;;;5.55;26.62;95536.97;5018695;28;20623;-72
2023/04/06 07:43:32;;;;;;;9.73;6.00;;;;;;;5.98;25.79;95537.25;5019351;28;20357;-72
2023/04/06 07:45:59;;;;;;;11.13;6.45;;;;;;;4.78;26.52;95539.78;5018982;28;20045;-72
2023/04/06 07:48:24;;;;;;;9.27;5.88;;;;;;;5.66;26.03;95535.09;5018421;28;20538;-72
2023/04/06 07:50:50;;;;;;;9.77;6.47;;;;;;;6.11;27.49;95528.94;5019542;28;20086;-72
2023/04/06 07:53:15;;;;;;;9.60;6.43;;;;;;;5.42;26.25;95541.78;5017603;28;20529;-72
2023/04/06 07:55:41;;;;;;;13.60;8.52;;;;;;;5.43;28.18;95538.16;5017754;28;20037;-72
2023/04/06 07:58:07;;;;;;;11.88;6.80;;;;;;;5.93;26.60;95533.41;5015434;28;20042;-72
2023/04/06 08:00:32;;;;;;;10.90;6.85;;;;;;;5.13;27.50;95533.03;5019652;28;20040;-72
2023/04/06 08:02:57;;;;;;;10.50;6.60;;;;;;;5.60;26.98;95533.88;5000040;28;20060;-72
2023/04/06 08:05:23;;;;;;;10.95;6.95;;;;;;;5.85;28.39;95526.22;5001110;28;20438;-72
2023/04/06 08:07:48;;;;;;;11.15;7.03;;;;;;;3.75;29.12;95538.50;5017259;28;20033;-72
2023/04/06 08:10:14;;;;;;;11.52;6.72;;;;;;;5.42;28.54;95533.88;5019226;28;20049;-72
2023/04/06 08:12:39;;;;;;;11.20;7.47;;;;;;;4.45;27.29;95538.34;5017960;28;20107;-72
2023/04/06 08:15:05;;;;;;;10.48;6.95;;;;;;;4.11;29.83;95546.69;5017495;28;20048;-71
2023/04/06 08:17:32;;;;;;;10.90;6.35;;;;;;;5.20;27.32;95544.66;5017219;28;20514;-72
2023/04/06 08:19:57;;;;;;;13.38;7.80;;;;;;;5.98;28.78;95542.53;5000504;28;20116;-72
2023/04/06 08:22:22;;;;;;;11.63;6.72;;;;;;;5.27;26.91;95552.00;5016948;28;20045;-71
2023/04/06 08:24:48;;;;;;;11.63;7.47;;;;;;;4.89;27.06;95547.53;5020262;28;20053;-65
2023/04/06 08:27:14;;;;;;;11.07;6.72;;;;;;;5.46;27.54;95543.16;5020682;28;20087;-64
2023/04/06 08:29:40;;;;;;;12.55;8.00;;;;;;;4.45;28.48;95546.25;5018145;28;20083;-64
2023/04/06 08:32:06;;;;;;;10.45;7.10;;;;;;;6.02;26.27;95553.63;5022147;28;20445;-64
2023/04/06 08:34:32;;;;;;;11.00;7.32;;;;;;;5.37;27.42;95555.41;5020977;28;20049;-64
2023/04/06 08:36:58;;;;;;;12.40;7.75;;;;;;;5.57;28.52;95550.88;5021922;28;20135;-64
2023/04/06 08:39:25;;;;;;;14.10;7.63;;;;;;;5.77;27.82;95552.53;5021627;28;20409;-65
2023/04/06 08:41:52;;;;;;;13.70;8.32;;;;;;;5.96;28.41;95549.78;5021277;28;20041;-64
2023/04/06 08:44:17;;;;;;;10.82;7.47;;;;;;;5.37;27.54;95549.31;5020717;28;20602;-64
2023/04/06 08:46:43;;;;;;;14.30;10.13;;;;;;;6.21;28.09;95544.72;5020826;28;20044;-65
2023/04/06 08:49:08;;;;;;;12.27;7.60;;;;;;;6.95;27.03;95540.97;5018016;28;20034;-64
2023/04/06 08:51:34;;;;;;;15.00;9.20;;;;;;;7.10;29.08;95535.91;5019224;28;20048;-65
2023/04/06 08:54:00;;;;;;;14.82;7.20;;;;;;;7.04;26.22;95543.66;5019290;28;20566;-64
2023/04/06 08:56:26;;;;;;;11.45;7.78;;;;;;;6.03;26.92;95549.19;5020077;28;20038;-64
2023/04/06 08:58:52;;;;;;;12.63;8.02;;;;;;;3.53;30.75;95550.91;5020996;28;20033;-64
2023/04/06 09:01:20;;;;;;;13.75;8.55;;;;;;;5.42;30.57;95545.25;5022312;28;20033;-65
2023/04/06 09:03:45;;;;;;;18.58;12.13;;;;;;;6.64;29.70;95536.16;5020886;28;20053;-65
2023/04/06 09:06:11;;;;;;;13.00;7.57;;;;;;;7.02;26.95;95534.06;5017226;28;20328;-64
2023/04/06 09:08:39;;;;;;;13.73;6.57;;;;;;;7.32;26.14;95548.75;5017839;28;20163;-64
2023/04/06 09:11:04;;;;;;;12.93;5.63;;;;;;;7.30;26.22;95542.78;5017747;28;20041;-65
2023/04/06 09:13:30;;;;;;;11.40;7.10;;;;;;;7.66;25.56;95545.22;5021847;28;20195;-65
2023/04/06 09:16:02;;;;;;;14.20;7.03;;;;;;;7.89;25.89;95548.13;5021091;28;20033;-65
2023/04/06 09:18:31;;;;;;;16.85;10.93;;;;;;;6.77;27.73;95554.25;5017338;28;20433;-66
2023/04/06 09:21:04;;;;;;;12.60;7.75;;;;;;;6.92;27.50;95553.66;5021442;28;20040;-66
2023/04/06 09:23:29;;;;;;;13.20;7.97;;;;;;;7.97;25.90;95546.47;5012831;28;20037;-66
2023/04/06 09:26:25;;;;;;;26.90;17.10;;;;;;;7.94;26.46;95546.81;5019034;28;20041;-66
2023/04/06 09:28:53;;;;;;;14.88;8.20;;;;;;;4.11;31.40;95562.50;5011644;28;20076;-66
2023/04/06 09:31:29;;;;;;;12.97;7.97;;;;;;;6.11;27.87;95555.38;5019560;28;20111;-66
2023/04/06 09:33:54;;;;;;;13.95;8.65;;;;;;;8.25;25.74;95539.06;5017328;28;20778;-66
2023/04/06 09:36:20;;;;;;;13.52;7.40;;;;;;;4.73;31.09;95553.38;5021157;28;20302;-66
2023/04/06 09:38:55;;;;;;;13.27;8.07;;;;;;;5.73;28.78;95550.22;5018391;28;20226;-66
2023/04/06 09:41:31;;;;;;;19.92;12.35;;;;;;;7.78;26.67;95538.66;5018591;28;20037;-65
2023/04/06 09:44:07;;;;;;;13.57;8.00;;;;;;;7.08;28.56;95531.75;5018623;28;20449;-66
2023/04/06 09:46:36;;;;;;;12.23;7.40;;;;;;;7.65;26.68;95533.00;5019709;28;20103;-66
2023/04/06 09:49:02;;;;;;;12.30;7.68;;;;;;;6.34;27.47;95543.50;5020579;28;20200;-66
2023/04/06 09:51:30;;;;;;;10.55;6.57;;;;;;;8.23;25.74;95532.28;5019447;28;20188;-66
2023/04/06 09:53:57;;;;;;;15.80;7.72;;;;;;;7.77;26.18;95531.72;5018892;28;20029;-66
2023/04/06 09:56:24;;;;;;;22.83;12.93;;;;;;;7.35;27.36;95540.50;5003965;28;20033;-66
2023/04/06 09:58:50;;;;;;;15.40;8.43;;;;;;;7.88;25.12;95529.72;5017871;28;20300;-66
2023/04/06 10:01:15;;;;;;;14.50;8.20;;;;;;;8.91;25.12;95537.34;5019827;28;20140;-66
2023/04/06 10:03:52;;;;;;;13.80;8.52;;;;;;;6.85;27.39;95550.81;5011281;28;20141;-66
2023/04/06 10:06:20;;;;;;;13.98;8.23;;;;;;;9.33;24.07;95532.78;5018016;28;20120;-66
2023/04/06 10:08:45;;;;;;;20.73;14.23;;;;;;;8.79;24.94;95545.66;5020020;28;20453;-66
2023/04/06 10:11:11;;;;;;;14.00;7.85;;;;;;;7.02;26.90;95539.38;5001616;28;20072;-65
2023/04/06 10:13:36;;;;;;;27.67;16.92;;;;;;;7.60;27.61;95528.16;5020159;28;20045;-65
2023/04/06 10:16:02;;;;;;;17.45;10.38;;;;;;;8.72;25.59;95534.06;5015677;28;20541;-66
2023/04/06 10:18:27;;;;;;;31.20;22.10;;;;;;;9.87;25.87;95530.34;5019476;28;20079;-66
2023/04/06 10:20:57;;;;;;;38.47;19.38;;;;;;;8.54;25.77;95528.94;5001615;28;20021;-66
2023/04/06 10:23:51;;;;;;;15.07;8.30;;;;;;;9.36;23.75;95537.75;5001850;28;20474;-66
2023/04/06 10:26:17;;;;;;;15.05;8.68;;;;;;;9.87;24.52;95533.84;5019550;28;20067;-65
2023/04/06 10:28:44;;;;;;;39.65;28.23;;;;;;;10.35;27.65;95527.53;5018742;28;20048;-66
2023/04/06 10:31:09;;;;;;;33.08;23.17;;;;;;;11.24;24.44;95525.22;5020192;28;20025;-66
2023/04/06 10:33:35;;;;;;;13.02;7.20;;;;;;;11.52;22.28;95533.38;5014743;28;20056;-66
2023/04/06 10:36:10;;;;;;;15.38;8.68;;;;;;;9.92;24.20;95523.50;5020129;28;20061;-65
2023/04/06 10:38:39;;;;;;;13.52;7.60;;;;;;;9.48;23.60;95527.56;5019588;28;20375;-66
2023/04/06 10:41:05;;;;;;;16.75;9.68;;;;;;;8.91;24.31;95540.00;5020291;28;20037;-66
2023/04/06 10:43:35;;;;;;;46.30;32.50;;;;;;;9.76;27.43;95529.72;5002713;28;20124;-66
2023/04/06 10:46:01;;;;;;;17.35;10.55;;;;;;;10.44;23.26;95523.00;5017301;28;20049;-66
2023/04/06 10:48:36;;;;;;;12.43;8.15;;;;;;;8.85;24.82;95527.41;5017087;28;20490;-66
2023/04/06 10:51:06;;;;;;;68.10;36.58;;;;;;;10.57;24.58;95523.19;5018765;28;20041;-66
2023/04/06 10:53:31;;;;;;;11.77;7.78;;;;;;;10.24;23.34;95531.47;5002441;28;20475;-65
2023/04/06 10:55:57;;;;;;;11.93;7.82;;;;;;;10.62;22.74;95531.47;5002081;28;20259;-66
2023/04/06 10:58:26;;;;;;;10.63;6.47;;;;;;;11.07;22.18;95516.53;5016654;28;20322;-66
2023/04/06 11:00:51;;;;;;;15.88;8.88;;;;;;;11.28;22.70;95523.84;5017401;28;20103;-66
2023/04/06 11:03:17;;;;;;;12.60;6.78;;;;;;;10.86;23.09;95526.94;5017788;28;20061;-65
2023/04/06 11:05:48;;;;;;;13.75;8.10;;;;;;;10.29;23.53;95534.41;5019905;28;20034;-66
2023/04/06 11:08:30;;;;;;;11.93;7.32;;;;;;;11.74;22.00;95519.28;5018117;28;20325;-66
2023/04/06 11:11:08;;;;;;;14.05;8.35;;;;;;;11.38;22.23;95518.22;5017396;28;20044;-66
2023/04/06 11:13:57;;;;;;;15.23;7.72;;;;;;;10.96;23.05;95523.16;5020160;28;20037;-66
2023/04/06 11:16:32;;;;;;;12.35;7.40;;;;;;;11.52;22.82;95511.22;5012439;28;20524;-66
2023/04/06 11:19:05;;;;;;;14.18;7.40;;;;;;;11.11;22.83;95510.69;5018462;28;20404;-65
2023/04/06 11:21:32;;;;;;;22.20;14.13;;;;;;;11.80;22.75;95507.03;5019449;28;20041;-66
2023/04/06 11:24:14;;;;;;;15.35;7.63;;;;;;;10.72;22.42;95511.75;5018058;28;20202;-65
2023/04/06 11:27:00;;;;;;;17.00;6.93;;;;;;;10.20;23.35;95519.53;5019373;28;20052;-66
2023/04/06 11:29:26;;;;;;;12.50;6.85;;;;;;;10.08;24.11;95506.63;5016978;28;20064;-65
2023/04/06 11:31:53;;;;;;;16.85;7.28;;;;;;;10.03;23.32;95506.28;5015245;28;20045;-65